createdAt,value
2023-09-19T00:00:50.458Z,18.70
2023-09-19T00:03:17.719Z,18.78
2023-09-19T00:05:46.687Z,18.74
2023-09-19T00:08:17.756Z,18.76
2023-09-19T00:10:45.387Z,18.76
2023-09-19T00:13:16.707Z,18.64
2023-09-19T00:15:52.009Z,18.78
2023-09-19T00:18:22.547Z,18.71
2023-09-19T00:20:51.365Z,18.71
2023-09-19T00:23:21.042Z,18.66
2023-09-19T00:25:48.393Z,18.67
2023-09-19T00:28:17.135Z,18.57
2023-09-19T00:30:45.095Z,18.47
2023-09-19T00:33:18.087Z,18.53
2023-09-19T00:35:52.045Z,18.45
2023-09-19T00:38:22.448Z,18.45
2023-09-19T00:40:50.428Z,18.40
2023-09-19T00:43:18.254Z,18.53
2023-09-19T00:45:49.635Z,18.43
2023-09-19T00:48:17.355Z,18.33
2023-09-19T00:50:49.237Z,18.37
2023-09-19T00:53:21.430Z,18.17
2023-09-19T00:55:48.797Z,18.16
2023-09-19T00:58:19.803Z,18.13
2023-09-19T01:00:49.099Z,18.03
2023-09-19T01:03:16.243Z,18.04
2023-09-19T01:05:43.971Z,18.04
2023-09-19T01:08:13.004Z,18.04
2023-09-19T01:10:48.369Z,18.07
2023-09-19T01:13:25.022Z,18.08
2023-09-19T01:16:01.155Z,18.14
2023-09-19T01:18:45.368Z,18.20
2023-09-19T01:21:30.514Z,18.13
2023-09-19T01:24:37.742Z,18.05
2023-09-19T01:27:46.111Z,18.17
2023-09-19T01:30:19.181Z,18.04
2023-09-19T01:32:47.796Z,18.05
2023-09-19T01:35:14.997Z,18.03
2023-09-19T01:37:45.353Z,17.98
2023-09-19T01:40:19.327Z,17.98
2023-09-19T01:43:35.344Z,17.95
2023-09-19T01:46:17.524Z,17.93
2023-09-19T01:49:22.165Z,17.92
2023-09-19T01:52:17.928Z,17.95
2023-09-19T01:54:52.483Z,17.87
2023-09-19T01:57:33.836Z,17.88
2023-09-19T02:00:08.527Z,17.99
2023-09-19T02:02:39.387Z,17.97
2023-09-19T02:05:06.482Z,17.90
2023-09-19T02:07:33.650Z,17.90
2023-09-19T02:10:07.329Z,17.67
2023-09-19T02:12:34.652Z,17.72
2023-09-19T02:15:01.759Z,17.66
2023-09-19T02:17:28.750Z,17.70
2023-09-19T02:19:56.587Z,17.68
2023-09-19T02:22:26.077Z,17.66
2023-09-19T02:24:54.238Z,17.74
2023-09-19T02:27:21.361Z,17.65
2023-09-19T02:29:48.251Z,17.62
2023-09-19T02:32:15.266Z,17.60
2023-09-19T02:34:43.309Z,17.62
2023-09-19T02:37:10.255Z,17.54
2023-09-19T02:39:37.240Z,17.56
2023-09-19T02:42:05.529Z,17.61
2023-09-19T02:44:32.825Z,17.54
2023-09-19T02:47:00.235Z,17.54
2023-09-19T02:49:27.271Z,17.62
2023-09-19T02:51:54.322Z,17.50
2023-09-19T02:54:21.592Z,17.41
2023-09-19T02:56:48.668Z,17.43
2023-09-19T02:59:15.973Z,17.27
2023-09-19T03:01:45.138Z,17.35
2023-09-19T03:04:13.053Z,17.33
2023-09-19T03:06:40.509Z,17.25
2023-09-19T03:09:13.706Z,17.24
2023-09-19T03:11:41.733Z,17.30
2023-09-19T03:14:08.671Z,17.18
2023-09-19T03:16:35.599Z,17.08
2023-09-19T03:19:02.606Z,17.18
2023-09-19T03:21:30.964Z,17.06
2023-09-19T03:23:58.220Z,17.10
2023-09-19T03:26:28.245Z,17.11
2023-09-19T03:28:55.586Z,17.14
2023-09-19T03:31:22.570Z,17.10
2023-09-19T03:33:49.579Z,16.97
2023-09-19T03:36:16.581Z,16.88
2023-09-19T03:38:43.907Z,16.91
2023-09-19T03:41:10.831Z,16.90
2023-09-19T03:43:37.697Z,16.86
2023-09-19T03:46:08.991Z,16.80
2023-09-19T03:48:35.930Z,16.70
2023-09-19T03:51:03.627Z,16.68
2023-09-19T03:53:30.524Z,16.77
2023-09-19T03:55:57.429Z,16.79
2023-09-19T03:58:24.410Z,16.84
2023-09-19T04:00:51.764Z,16.68
2023-09-19T04:03:22.429Z,16.64
2023-09-19T04:05:49.498Z,16.64
2023-09-19T04:08:16.594Z,16.76
2023-09-19T04:10:45.300Z,16.68
2023-09-19T04:13:16.881Z,16.69
2023-09-19T04:15:43.871Z,16.69
2023-09-19T04:18:10.871Z,16.66
2023-09-19T04:20:37.837Z,16.62
2023-09-19T04:23:06.944Z,16.59
2023-09-19T04:25:33.938Z,16.55
2023-09-19T04:28:00.885Z,16.58
2023-09-19T04:30:28.396Z,16.47
2023-09-19T04:32:55.289Z,16.46
2023-09-19T04:35:22.378Z,16.51
2023-09-19T04:37:49.588Z,16.54
2023-09-19T04:40:19.314Z,16.43
2023-09-19T04:42:47.434Z,16.44
2023-09-19T04:45:14.735Z,16.43
2023-09-19T04:47:41.622Z,16.37
2023-09-19T04:50:13.414Z,16.44
2023-09-19T04:52:46.136Z,16.47
2023-09-19T04:55:18.408Z,16.49
2023-09-19T04:57:52.448Z,16.40
2023-09-19T05:00:21.121Z,16.46
2023-09-19T05:02:51.348Z,16.41
2023-09-19T05:05:19.178Z,16.38
2023-09-19T05:07:47.139Z,16.42
2023-09-19T05:10:14.854Z,16.36
2023-09-19T05:12:42.444Z,16.37
2023-09-19T05:15:10.050Z,16.39
2023-09-19T05:17:37.612Z,16.41
2023-09-19T05:20:08.002Z,16.34
2023-09-19T05:22:35.645Z,16.43
2023-09-19T05:25:05.958Z,16.46
2023-09-19T05:27:32.829Z,16.39
2023-09-19T05:29:59.693Z,16.46
2023-09-19T05:32:27.281Z,16.46
2023-09-19T05:34:57.901Z,16.47
2023-09-19T05:37:27.962Z,16.44
2023-09-19T05:39:58.857Z,16.49
2023-09-19T05:42:25.885Z,16.56
2023-09-19T05:44:52.843Z,16.48
2023-09-19T05:47:20.436Z,16.48
2023-09-19T05:49:49.847Z,16.54
2023-09-19T05:52:18.131Z,16.59
2023-09-19T05:54:45.008Z,16.53
2023-09-19T05:57:13.703Z,16.66
2023-09-19T05:59:41.557Z,16.59
2023-09-19T06:02:08.651Z,16.67
2023-09-19T06:04:35.762Z,16.63
2023-09-19T06:07:05.567Z,16.67
2023-09-19T06:09:33.459Z,16.73
2023-09-19T06:12:04.770Z,16.72
2023-09-19T06:14:32.162Z,16.73
2023-09-19T06:16:59.098Z,16.72
2023-09-19T06:19:27.488Z,16.72
2023-09-19T06:21:55.449Z,16.63
2023-09-19T06:24:22.579Z,16.70
2023-09-19T06:26:50.904Z,16.61
2023-09-19T06:29:17.864Z,16.72
2023-09-19T06:31:46.003Z,16.63
2023-09-19T06:34:13.106Z,16.61
2023-09-19T06:36:39.995Z,16.59
2023-09-19T06:39:07.874Z,16.65
2023-09-19T06:41:34.814Z,16.68
2023-09-19T06:44:02.450Z,16.62
2023-09-19T06:46:34.278Z,16.61
2023-09-19T06:49:01.276Z,16.51
2023-09-19T06:51:28.333Z,16.50
2023-09-19T06:53:55.949Z,16.54
2023-09-19T06:56:26.103Z,16.62
2023-09-19T06:58:53.057Z,16.58
2023-09-19T07:01:20.463Z,16.53
2023-09-19T07:03:47.580Z,16.60
2023-09-19T07:06:14.629Z,16.65
2023-09-19T07:08:41.549Z,16.71
2023-09-19T07:11:08.554Z,16.72
2023-09-19T07:13:37.111Z,16.80
2023-09-19T07:16:04.236Z,16.87
2023-09-19T07:18:31.630Z,17.02
2023-09-19T07:21:02.605Z,17.11
2023-09-19T07:23:31.401Z,17.05
2023-09-19T07:26:00.240Z,17.14
2023-09-19T07:28:27.257Z,17.18
2023-09-19T07:30:54.088Z,17.37
2023-09-19T07:33:21.104Z,17.46
2023-09-19T07:35:48.757Z,17.55
2023-09-19T07:38:16.098Z,17.49
2023-09-19T07:40:43.515Z,17.51
2023-09-19T07:43:10.763Z,17.51
2023-09-19T07:45:37.945Z,17.41
2023-09-19T07:48:14.996Z,17.38
2023-09-19T07:50:44.926Z,17.36
2023-09-19T07:53:14.794Z,17.39
2023-09-19T07:55:42.540Z,17.55
2023-09-19T07:58:09.850Z,17.59
2023-09-19T08:00:36.724Z,17.44
2023-09-19T08:03:15.835Z,17.49
2023-09-19T08:05:45.299Z,17.53
2023-09-19T08:08:14.928Z,17.62
2023-09-19T08:10:43.818Z,17.55
2023-09-19T08:13:14.820Z,17.50
2023-09-19T08:15:45.965Z,17.56
2023-09-19T08:18:13.547Z,17.57
2023-09-19T08:20:43.724Z,17.49
2023-09-19T08:23:10.645Z,17.56
2023-09-19T08:25:39.695Z,17.55
2023-09-19T08:28:10.031Z,17.65
2023-09-19T08:30:41.867Z,17.83
2023-09-19T08:33:09.143Z,17.86
2023-09-19T08:35:36.625Z,17.91
2023-09-19T08:38:05.760Z,18.02
2023-09-19T08:40:35.168Z,17.86
2023-09-19T08:43:02.054Z,17.76
2023-09-19T08:45:30.114Z,17.90
2023-09-19T08:48:18.506Z,17.81
2023-09-19T08:50:59.414Z,17.68
2023-09-19T08:54:00.766Z,17.79
2023-09-19T08:56:28.138Z,17.85
2023-09-19T08:59:04.484Z,18.00
2023-09-19T09:01:33.957Z,18.20
2023-09-19T09:04:03.354Z,18.15
2023-09-19T09:06:31.019Z,18.36
2023-09-19T09:08:58.169Z,18.43
2023-09-19T09:11:26.360Z,18.35
2023-09-19T09:13:53.454Z,18.49
2023-09-19T09:16:20.976Z,18.44
2023-09-19T09:18:54.743Z,18.42
2023-09-19T09:21:23.379Z,18.48
2023-09-19T09:23:55.101Z,18.67
2023-09-19T09:26:48.776Z,18.73
2023-09-19T09:29:20.246Z,18.77
2023-09-19T09:31:49.720Z,18.87
2023-09-19T09:34:17.426Z,18.93
2023-09-19T09:36:49.593Z,18.91
2023-09-19T09:39:20.309Z,19.12
2023-09-19T09:41:47.382Z,19.25
2023-09-19T09:44:19.346Z,19.46
2023-09-19T09:46:56.389Z,19.44
2023-09-19T09:49:34.033Z,19.22
2023-09-19T09:52:12.257Z,19.32
2023-09-19T09:54:39.940Z,19.49
2023-09-19T09:57:25.273Z,19.45
2023-09-19T10:00:19.469Z,19.29
2023-09-19T10:02:48.386Z,19.39
2023-09-19T10:05:30.164Z,19.20
2023-09-19T10:08:02.364Z,19.31
2023-09-19T10:10:55.606Z,19.44
2023-09-19T10:13:24.717Z,19.60
2023-09-19T10:15:55.236Z,19.65
2023-09-19T10:18:26.747Z,19.59
2023-09-19T10:20:53.979Z,19.41
2023-09-19T10:23:25.055Z,19.41
2023-09-19T10:25:53.777Z,19.59
2023-09-19T10:28:23.845Z,19.49
2023-09-19T10:30:52.828Z,19.48
2023-09-19T10:33:27.514Z,19.56
2023-09-19T10:35:57.905Z,19.63
2023-09-19T10:38:26.459Z,19.59
2023-09-19T10:41:02.330Z,19.61
2023-09-19T10:43:36.517Z,19.68
2023-09-19T10:46:09.185Z,19.80
2023-09-19T10:48:37.366Z,19.87
2023-09-19T10:51:11.907Z,19.70
2023-09-19T10:54:08.057Z,19.76
2023-09-19T10:56:43.001Z,19.65
2023-09-19T10:59:15.044Z,19.52
2023-09-19T11:01:53.231Z,19.73
2023-09-19T11:04:31.653Z,19.97
2023-09-19T11:07:16.403Z,19.97
2023-09-19T11:09:59.156Z,19.66
2023-09-19T11:12:47.201Z,19.66
2023-09-19T11:15:53.466Z,19.29
2023-09-19T11:18:57.319Z,19.12
2023-09-19T11:21:40.321Z,19.25
2023-09-19T11:24:39.088Z,19.34
2023-09-19T11:27:19.365Z,19.33
2023-09-19T11:29:46.476Z,19.29
2023-09-19T11:32:13.843Z,19.43
2023-09-19T11:34:47.546Z,19.46
2023-09-19T11:37:41.269Z,19.47
2023-09-19T11:40:17.795Z,19.31
2023-09-19T11:42:46.681Z,19.49
2023-09-19T11:45:47.656Z,19.35
2023-09-19T11:48:16.697Z,19.45
2023-09-19T11:50:45.684Z,19.68
2023-09-19T11:53:18.557Z,19.75
2023-09-19T11:55:46.680Z,19.89
2023-09-19T11:58:18.227Z,19.59
2023-09-19T12:00:46.640Z,19.64
2023-09-19T12:03:15.870Z,19.56
2023-09-19T12:05:42.952Z,19.71
2023-09-19T12:08:10.228Z,19.58
2023-09-19T12:10:50.778Z,19.65
2023-09-19T12:13:19.530Z,19.50
2023-09-19T12:15:49.464Z,19.44
2023-09-19T12:18:29.793Z,19.46
2023-09-19T12:20:57.215Z,19.43
2023-09-19T12:23:25.390Z,19.39
2023-09-19T12:25:55.059Z,19.47
2023-09-19T12:28:25.403Z,19.39
2023-09-19T12:30:56.732Z,19.43
2023-09-19T12:33:28.432Z,19.52
2023-09-19T12:35:55.463Z,19.64
2023-09-19T12:38:29.805Z,19.71
2023-09-19T12:41:01.695Z,19.73
2023-09-19T12:43:34.608Z,19.82
2023-09-19T12:46:02.207Z,19.74
2023-09-19T12:48:35.979Z,19.64
2023-09-19T12:51:08.901Z,19.74
2023-09-19T12:53:50.251Z,19.98
2023-09-19T12:56:19.578Z,19.98
2023-09-19T12:58:57.209Z,19.98
2023-09-19T13:01:29.523Z,19.95
2023-09-19T13:04:27.548Z,20.05
2023-09-19T13:06:56.194Z,20.06
2023-09-19T13:09:29.899Z,20.12
2023-09-19T13:11:56.795Z,20.09
2023-09-19T13:14:41.657Z,20.03
2023-09-19T13:17:20.548Z,20.15
2023-09-19T13:19:56.654Z,20.17
2023-09-19T13:22:44.417Z,20.24
2023-09-19T13:25:19.886Z,20.34
2023-09-19T13:27:49.855Z,20.12
2023-09-19T13:30:16.953Z,20.25
2023-09-19T13:32:45.208Z,20.36
2023-09-19T13:35:13.687Z,20.51
2023-09-19T13:37:44.530Z,20.40
2023-09-19T13:40:15.589Z,20.59
2023-09-19T13:42:43.323Z,20.64
2023-09-19T13:45:14.013Z,20.57
2023-09-19T13:47:42.283Z,20.75
2023-09-19T13:50:10.300Z,20.56
2023-09-19T13:52:37.392Z,20.46
2023-09-19T13:55:05.073Z,20.39
2023-09-19T13:57:31.838Z,20.28
2023-09-19T13:59:58.972Z,20.38
2023-09-19T14:02:26.463Z,20.42
2023-09-19T14:04:54.055Z,20.42
2023-09-19T14:07:21.582Z,20.30
2023-09-19T14:09:49.127Z,20.30
2023-09-19T14:12:16.945Z,20.21
2023-09-19T14:14:44.240Z,20.24
2023-09-19T14:17:11.400Z,20.30
2023-09-19T14:19:39.444Z,20.24
2023-09-19T14:22:09.564Z,20.24
2023-09-19T14:24:37.274Z,20.19
2023-09-19T14:27:05.417Z,20.23
2023-09-19T14:29:33.471Z,20.26
2023-09-19T14:32:00.824Z,20.24
2023-09-19T14:34:27.917Z,20.38
2023-09-19T14:36:56.196Z,20.44
2023-09-19T14:39:23.121Z,20.34
2023-09-19T14:41:50.576Z,20.39
2023-09-19T14:44:17.818Z,20.41
2023-09-19T14:46:47.684Z,20.48
2023-09-19T14:49:18.157Z,20.28
2023-09-19T14:51:49.417Z,20.24
2023-09-19T14:54:19.188Z,20.26
2023-09-19T14:56:46.628Z,20.37
2023-09-19T14:59:14.389Z,20.31
2023-09-19T15:01:42.545Z,20.45
2023-09-19T15:04:10.300Z,20.46
2023-09-19T15:06:37.330Z,20.49
2023-09-19T15:09:06.470Z,20.48
2023-09-19T15:11:33.487Z,20.46
2023-09-19T15:14:01.088Z,20.44
2023-09-19T15:16:28.732Z,20.45
2023-09-19T15:18:56.758Z,20.45
2023-09-19T15:21:25.031Z,20.32
2023-09-19T15:23:51.945Z,20.47
2023-09-19T15:26:22.144Z,20.48
2023-09-19T15:28:49.803Z,20.50
2023-09-19T15:31:17.110Z,20.49
2023-09-19T15:33:44.042Z,20.50
2023-09-19T15:36:12.348Z,20.55
2023-09-19T15:39:02.233Z,20.51
2023-09-19T15:41:34.181Z,20.35
2023-09-19T15:44:05.132Z,20.22
2023-09-19T15:46:37.016Z,20.27
2023-09-19T15:49:04.783Z,20.21
2023-09-19T15:51:31.921Z,20.26
2023-09-19T15:54:01.417Z,20.21
2023-09-19T15:56:28.531Z,20.06
2023-09-19T15:58:56.267Z,20.00
2023-09-19T16:01:24.330Z,19.90
2023-09-19T16:03:57.433Z,19.92
2023-09-19T16:06:27.209Z,19.90
2023-09-19T16:08:57.519Z,19.82
2023-09-19T16:11:25.891Z,19.90
2023-09-19T16:13:54.214Z,19.80
2023-09-19T16:16:24.703Z,19.82
2023-09-19T16:18:59.106Z,19.75
2023-09-19T16:21:28.151Z,19.66
2023-09-19T16:23:56.999Z,19.82
2023-09-19T16:26:25.356Z,19.75
2023-09-19T16:28:54.485Z,19.73
2023-09-19T16:31:21.801Z,19.79
2023-09-19T16:33:49.157Z,19.69
2023-09-19T16:36:20.744Z,19.62
2023-09-19T16:38:51.746Z,19.63
2023-09-19T16:41:20.583Z,19.63
2023-09-19T16:43:48.832Z,19.57
2023-09-19T16:46:22.511Z,19.55
2023-09-19T16:51:22.807Z,19.57
2023-09-19T16:53:51.070Z,19.47
2023-09-19T16:56:20.261Z,19.40
2023-09-19T16:58:49.198Z,19.31
2023-09-19T17:01:18.016Z,19.40
2023-09-19T17:03:45.582Z,19.31
2023-09-19T17:06:16.377Z,19.27
2023-09-19T17:08:47.289Z,19.12
2023-09-19T17:11:18.905Z,19.14
2023-09-19T17:13:48.588Z,19.11
2023-09-19T17:16:20.156Z,19.06
2023-09-19T17:18:49.040Z,19.07
2023-09-19T17:21:16.893Z,18.98
2023-09-19T17:23:43.839Z,18.95
2023-09-19T17:26:12.588Z,18.92
2023-09-19T17:28:40.637Z,18.88
2023-09-19T17:31:16.533Z,18.86
2023-09-19T17:33:44.583Z,18.74
2023-09-19T17:36:15.239Z,18.76
2023-09-19T17:38:43.344Z,18.74
2023-09-19T17:41:10.564Z,18.67
2023-09-19T17:43:39.652Z,18.52
2023-09-19T17:46:18.044Z,18.43
2023-09-19T17:48:47.413Z,18.41
2023-09-19T17:51:15.790Z,18.36
2023-09-19T17:53:43.162Z,18.30
2023-09-19T17:56:11.714Z,18.24
2023-09-19T17:58:39.690Z,18.16
2023-09-19T18:01:18.752Z,17.95
2023-09-19T18:03:45.844Z,17.97
2023-09-19T18:06:15.386Z,17.92
2023-09-19T18:08:43.349Z,17.80
2023-09-19T18:11:15.829Z,17.71
2023-09-19T18:13:49.716Z,17.72
2023-09-19T18:16:18.490Z,17.65
2023-09-19T18:18:51.282Z,17.62
2023-09-19T18:21:21.281Z,17.36
2023-09-19T18:24:02.631Z,17.28
2023-09-19T18:26:30.022Z,17.20
2023-09-19T18:28:57.053Z,17.17
2023-09-19T18:31:24.561Z,17.13
2023-09-19T18:33:53.465Z,17.03
2023-09-19T18:36:20.945Z,16.97
2023-09-19T18:38:49.952Z,16.97
2023-09-19T18:41:17.678Z,16.94
2023-09-19T18:43:45.130Z,16.87
2023-09-19T18:46:15.289Z,16.72
2023-09-19T18:48:46.612Z,16.63
2023-09-19T18:51:15.699Z,16.54
2023-09-19T18:53:47.262Z,16.58
2023-09-19T18:56:20.903Z,16.49
2023-09-19T18:58:51.410Z,16.52
2023-09-19T19:01:18.808Z,16.56
2023-09-19T19:03:47.240Z,16.50
2023-09-19T19:06:18.810Z,16.52
2023-09-19T19:08:47.449Z,16.55
2023-09-19T19:11:18.268Z,16.45
2023-09-19T19:13:48.447Z,16.37
2023-09-19T19:16:17.595Z,16.24
2023-09-19T19:18:46.174Z,16.29
2023-09-19T19:21:14.572Z,16.29
2023-09-19T19:23:41.805Z,16.19
2023-09-19T19:26:10.884Z,16.29
2023-09-19T19:28:41.277Z,16.24
2023-09-19T19:31:11.502Z,16.16
2023-09-19T19:33:39.953Z,15.95
2023-09-19T19:36:09.116Z,15.94
2023-09-19T19:38:38.637Z,15.78
2023-09-19T19:41:06.534Z,15.79
2023-09-19T19:43:34.080Z,15.69
2023-09-19T19:46:04.730Z,15.61
2023-09-19T19:48:32.020Z,15.72
2023-09-19T19:51:00.387Z,15.62
2023-09-19T19:53:27.625Z,15.47
2023-09-19T19:55:54.888Z,15.49
2023-09-19T19:58:22.723Z,15.49
2023-09-19T20:00:51.176Z,15.49
2023-09-19T20:03:19.075Z,15.40
2023-09-19T20:05:49.636Z,15.39
2023-09-19T20:08:16.940Z,15.38
2023-09-19T20:10:45.036Z,15.35
2023-09-19T20:13:16.848Z,15.40
2023-09-19T20:15:44.662Z,15.47
2023-09-19T20:18:14.609Z,15.29
2023-09-19T20:20:41.992Z,15.08
2023-09-19T20:23:11.719Z,15.14
2023-09-19T20:25:46.879Z,15.12
2023-09-19T20:28:18.240Z,15.11
2023-09-19T20:30:49.341Z,15.05
2023-09-19T20:33:19.442Z,15.09
2023-09-19T20:35:47.068Z,14.97
2023-09-19T20:38:17.121Z,14.89
2023-09-19T20:40:47.667Z,14.92
2023-09-19T20:43:15.759Z,14.93
2023-09-19T20:45:43.484Z,14.98
2023-09-19T20:48:12.352Z,14.79
2023-09-19T20:50:40.532Z,14.88
2023-09-19T20:53:07.900Z,14.72
2023-09-19T20:55:38.416Z,14.65
2023-09-19T20:58:09.097Z,14.79
2023-09-19T21:00:36.468Z,14.71
2023-09-19T21:03:03.754Z,14.75
2023-09-19T21:05:31.420Z,14.77
2023-09-19T21:07:59.468Z,14.64
2023-09-19T21:10:26.715Z,14.72
2023-09-19T21:12:53.865Z,14.67
2023-09-19T21:15:25.214Z,14.57
2023-09-19T21:17:52.608Z,14.52
2023-09-19T21:20:23.995Z,14.51
2023-09-19T21:22:51.456Z,14.52
2023-09-19T21:25:18.639Z,14.36
2023-09-19T21:27:51.098Z,14.32
2023-09-19T21:30:21.874Z,14.36
2023-09-19T21:32:49.182Z,14.40
2023-09-19T21:35:19.671Z,14.41
2023-09-19T21:37:46.805Z,14.38
2023-09-19T21:40:14.070Z,14.43
2023-09-19T21:42:41.106Z,14.41
2023-09-19T21:45:08.995Z,14.31
2023-09-19T21:47:36.465Z,14.35
2023-09-19T21:50:08.229Z,14.41
2023-09-19T21:52:35.828Z,14.34
2023-09-19T21:55:05.109Z,14.40
2023-09-19T21:57:32.480Z,14.27
2023-09-19T22:00:03.504Z,14.18
2023-09-19T22:02:34.474Z,14.08
2023-09-19T22:05:02.787Z,14.14
2023-09-19T22:07:32.760Z,14.16
2023-09-19T22:10:03.946Z,14.32
2023-09-19T22:12:31.961Z,14.27
2023-09-19T22:14:59.429Z,14.34
2023-09-19T22:17:26.967Z,14.37
2023-09-19T22:19:55.499Z,14.24
2023-09-19T22:22:22.715Z,14.24
2023-09-19T22:24:49.998Z,14.31
2023-09-19T22:27:17.460Z,14.14
2023-09-19T22:29:46.371Z,14.22
2023-09-19T22:32:13.735Z,14.30
2023-09-19T22:34:43.788Z,14.24
2023-09-19T22:37:12.588Z,14.13
2023-09-19T22:39:39.958Z,14.20
2023-09-19T22:42:12.916Z,14.20
2023-09-19T22:44:41.911Z,14.16
2023-09-19T22:47:09.626Z,14.05
2023-09-19T22:49:40.024Z,14.15
2023-09-19T22:52:09.685Z,14.12
2023-09-19T22:54:38.265Z,14.10
2023-09-19T22:57:07.582Z,14.13
2023-09-19T22:59:36.873Z,14.14
2023-09-19T23:02:06.916Z,13.98
2023-09-19T23:04:35.884Z,13.96
2023-09-19T23:07:07.035Z,13.99
2023-09-19T23:09:36.255Z,13.92
2023-09-19T23:12:08.906Z,14.00
2023-09-19T23:14:43.063Z,14.01
2023-09-19T23:17:23.109Z,14.09
2023-09-19T23:19:50.678Z,13.93
2023-09-19T23:22:30.144Z,14.03
2023-09-19T23:25:14.164Z,14.06
2023-09-19T23:27:46.249Z,14.06
2023-09-19T23:30:14.151Z,14.02
2023-09-19T23:32:41.179Z,14.11
2023-09-19T23:35:09.730Z,14.11
2023-09-19T23:37:37.177Z,14.13
2023-09-19T23:40:07.252Z,14.16
2023-09-19T23:42:35.493Z,14.22
2023-09-19T23:45:03.710Z,14.21
2023-09-19T23:47:32.081Z,14.15
2023-09-19T23:49:59.393Z,14.24
2023-09-19T23:52:26.544Z,14.19
2023-09-19T23:54:57.613Z,14.19
2023-09-19T23:57:24.795Z,14.31
2023-09-19T23:59:52.358Z,14.30
